الصفحة الرئيسية
METAR-TAF:

METAR-TAF

مطار :

كورفو, اليونان

دائرة عرض: 39-37N, خط طول: 019-55E, ارتفاع: 2 متر

مراقبة الطقس الحالي

تاريخ ووقت الإصدار 21 دقيقة قبل الساعة 21:20UTC
ريح 5 عقدة من الغرب
درجة الحرارة 21°درجة مئوية
الرطوبة 46%
ضغط 1017 hPa
الرؤية 10 كم أو أكثر
غيوم متفرقة على ارتفاع 4000 قدم

METAR: LGKR 252120Z 26005KT 9999 SCT040 21/09 Q1017 NOSIG

زمن: 00:41 (21:41 UTC)

توقعات

تاريخ ووقت الإصدار 4ساعات و 41 دقيقة قبل الساعة 17:00UTC
التوقعات صالحة من25 الساعة 18 UTC إلى 26 الساعة 18 UTC
ريح 15 عقدة من الشمال الغربي
الرؤية 10 كم أو أكثر
غيوم قليلة على ارتفاع 3000 قدم
أصبح
من 25 الساعة 23 UTC إلى 26 الساعة 01 UTC
ريح 5 عقدةمن اتجاهات متغيرة
نظرية الاحتمالات 30% :
مؤقت
من 25 الساعة 21 UTC إلى 26 الساعة 12 UTC
الرؤية: 5000 متر
غيوم قليلة على ارتفاع 1800 قدم, مزن ركامية عمودية.
غيوم مفككة على ارتفاع 2500 قدم
زخات من المطر

TAF: LGKR 251700Z 2518/2618 32015KT 9999 FEW030 BECMG 2523/2601 VRB05KT PROB30 TEMPO 2521/2612 5000 SHRA FEW018TCU BKN025

أرصاد الطقس والتوقعات من أكثر من 4000 مطار (تقارير الطقس للمطار METAR والتنبؤ بالطقس بالمطارTAF).

المحطات المتاحة هي النقط الصفراء والحمراء على الخريطة.

حرك المؤشر فوق النقطة لمعرفة اسم المحطة.

ثم انقر لمعرفة أرصاد وتوقعات الطقس.

لتغيير الخارطة: اضغط على الأزرار الخضراء مع رمز الصليب الأسود للتكبير. على الزر الأخضر مع شرطة للتصغير، أو على الأسهم الخضراء للخرائط المجاورة.


METAR-TAF: